Time;durP1;ratioP1;P1;durP2;ratioP2;P2;SDS_P1;SDS_P2;PMS_P1;PMS_P2;Temp;Humidity;BMP_temperature;BMP_pressure;BME280_temperature;BME280_humidity;BME280_pressure;Samples;Min_cycle;Max_cycle;Signal;HPM_P1;HPM_P2
2022/07/16 00:01:22;;;;;;;3.58;1.52;;;18.80;64.20;;;;;;5056308;28;20043;-90
2022/07/16 00:01:48;;;;;;;2.42;1.42;;;18.70;64.30;;;;;;5066901;28;20060;-89
2022/07/16 00:04:14;;;;;;;3.10;1.40;;;18.70;64.50;;;;;;5057881;28;20025;-89
2022/07/16 00:06:39;;;;;;;2.80;1.27;;;18.50;64.50;;;;;;5059173;28;20059;-89
2022/07/16 00:09:05;;;;;;;5.40;1.45;;;18.50;65.00;;;;;;5051825;28;20520;-89
2022/07/16 00:11:31;;;;;;;2.35;1.58;;;18.50;65.10;;;;;;5064866;28;20062;-87
2022/07/16 00:13:56;;;;;;;2.92;1.60;;;18.50;65.00;;;;;;5062258;28;20099;-87
2022/07/16 00:16:22;;;;;;;3.92;1.42;;;18.40;65.40;;;;;;5054002;28;20071;-87
2022/07/16 00:21:32;;;;;;;2.90;1.48;;;18.30;65.40;;;;;;5066114;28;20413;-89
2022/07/16 00:23:58;;;;;;;3.53;1.40;;;18.30;65.40;;;;;;5049929;28;20028;-89
2022/07/16 00:26:24;;;;;;;4.80;1.50;;;18.30;65.60;;;;;;5074656;28;20056;-89
2022/07/16 00:28:49;;;;;;;3.28;1.63;;;18.30;65.80;;;;;;5057508;28;20438;-91
2022/07/16 00:31:15;;;;;;;5.13;1.42;;;18.30;65.70;;;;;;5075653;28;20032;-89
2022/07/16 00:33:41;;;;;;;3.20;1.50;;;18.20;66.10;;;;;;5057830;28;20032;-89
2022/07/16 00:36:07;;;;;;;3.60;1.50;;;18.10;66.00;;;;;;5057083;28;20036;-89
2022/07/16 00:38:32;;;;;;;2.55;1.30;;;18.00;66.40;;;;;;5040614;28;20056;-89
2022/07/16 00:40:58;;;;;;;3.40;2.03;;;18.00;66.60;;;;;;5069660;28;20044;-90
2022/07/16 00:43:24;;;;;;;3.97;1.63;;;18.00;66.90;;;;;;5045238;28;20048;-89
2022/07/16 00:45:49;;;;;;;2.85;1.30;;;17.90;67.00;;;;;;5056507;28;20028;-89
2022/07/16 00:48:15;;;;;;;4.90;1.48;;;17.90;67.00;;;;;;5041664;28;20127;-89
2022/07/16 00:50:41;;;;;;;2.42;1.60;;;17.90;67.00;;;;;;5071458;28;20466;-89
2022/07/16 00:53:11;;;;;;;3.40;1.40;;;17.80;67.00;;;;;;5042350;28;20424;-90
2022/07/16 00:55:38;;;;;;;4.93;1.42;;;17.80;67.50;;;;;;5072926;28;20017;-89
2022/07/16 00:58:03;;;;;;;2.33;1.27;;;17.70;67.80;;;;;;5060521;28;20520;-89
2022/07/16 01:00:29;;;;;;;3.97;1.48;;;17.60;68.10;;;;;;5053284;28;20028;-89
2022/07/16 01:02:57;;;;;;;4.22;1.38;;;17.50;68.60;;;;;;5040602;28;20425;-89
2022/07/16 01:05:22;;;;;;;3.10;1.63;;;17.50;68.80;;;;;;5074689;28;20069;-89
2022/07/16 01:07:48;;;;;;;3.30;1.50;;;17.40;69.00;;;;;;5056468;28;20536;-93
2022/07/16 01:10:14;;;;;;;2.55;1.30;;;17.50;69.10;;;;;;5056783;28;20036;-90
2022/07/16 01:12:40;;;;;;;2.33;1.45;;;17.50;69.00;;;;;;5040302;28;20025;-89
2022/07/16 01:15:06;;;;;;;2.50;1.35;;;17.50;68.80;;;;;;5068500;28;20425;-90
2022/07/16 01:17:32;;;;;;;2.17;1.20;;;17.50;68.80;;;;;;5029431;28;20047;-90
2022/07/16 01:19:58;;;;;;;4.22;1.77;;;17.30;69.50;;;;;;5053572;28;20488;-90
2022/07/16 01:22:25;;;;;;;3.85;1.33;;;17.00;70.30;;;;;;5036884;28;20025;-90
2022/07/16 01:24:51;;;;;;;2.75;1.80;;;17.00;71.10;;;;;;5020093;28;20029;-90
2022/07/16 01:27:19;;;;;;;3.65;1.67;;;17.00;71.20;;;;;;5036266;28;20048;-90
2022/07/16 01:29:44;;;;;;;5.13;1.85;;;17.10;71.10;;;;;;5036743;28;20044;-90
2022/07/16 01:32:10;;;;;;;5.25;1.88;;;17.10;71.00;;;;;;5053930;28;20025;-89
2022/07/16 01:34:37;;;;;;;4.00;1.80;;;17.10;70.80;;;;;;5036754;28;20032;-89
2022/07/16 01:37:06;;;;;;;2.45;1.50;;;17.10;70.70;;;;;;5054085;28;20024;-89
2022/07/16 01:39:34;;;;;;;3.00;1.50;;;17.10;70.80;;;;;;5053888;28;20045;-89
2022/07/16 01:42:02;;;;;;;3.53;1.60;;;17.10;71.00;;;;;;5035899;28;20032;-89
2022/07/16 01:44:30;;;;;;;4.65;1.73;;;17.20;71.00;;;;;;5036134;28;20025;-90
2022/07/16 01:46:57;;;;;;;3.60;2.00;;;17.10;70.90;;;;;;5035822;28;20032;-89
2022/07/16 01:49:23;;;;;;;8.60;1.90;;;17.20;70.80;;;;;;5035978;28;20032;-89
2022/07/16 01:51:50;;;;;;;3.38;1.55;;;17.20;70.90;;;;;;5052777;28;20059;-91
2022/07/16 01:54:15;;;;;;;1.90;1.25;;;17.10;71.00;;;;;;5026515;28;20026;-89
2022/07/16 01:56:41;;;;;;;4.35;1.90;;;17.10;71.30;;;;;;5048677;28;20074;-89
2022/07/16 01:59:07;;;;;;;3.60;1.52;;;17.00;71.90;;;;;;5035558;28;20036;-89
2022/07/16 02:01:33;;;;;;;3.67;2.05;;;16.90;72.10;;;;;;5036016;28;20024;-89
2022/07/16 02:03:59;;;;;;;4.00;1.60;;;16.90;72.40;;;;;;5035753;28;20075;-89
2022/07/16 02:06:25;;;;;;;2.90;1.88;;;16.90;72.50;;;;;;5035930;28;20060;-90
2022/07/16 02:08:50;;;;;;;2.22;1.70;;;16.90;72.40;;;;;;5035330;28;20401;-90
2022/07/16 02:11:16;;;;;;;2.33;1.55;;;16.80;72.70;;;;;;5036091;28;20075;-90
2022/07/16 02:13:42;;;;;;;3.05;1.88;;;16.80;72.70;;;;;;5053844;28;20378;-89
2022/07/16 02:16:08;;;;;;;2.25;1.50;;;16.70;72.80;;;;;;5032133;28;20045;-90
2022/07/16 02:18:34;;;;;;;2.70;1.80;;;16.60;73.20;;;;;;5054220;28;20046;-89
2022/07/16 02:21:00;;;;;;;2.38;1.67;;;16.40;73.90;;;;;;5073108;28;20510;-89
2022/07/16 02:23:25;;;;;;;7.03;2.50;;;16.40;73.90;;;;;;5055757;28;20025;-89
2022/07/16 02:25:51;;;;;;;3.17;2.00;;;16.30;73.80;;;;;;5072768;28;20073;-90
2022/07/16 02:28:16;;;;;;;3.35;2.08;;;16.30;73.90;;;;;;5057743;28;20116;-90
2022/07/16 02:30:45;;;;;;;4.25;1.90;;;16.10;74.30;;;;;;5072632;28;20036;-90
2022/07/16 02:33:12;;;;;;;3.45;2.10;;;16.00;74.70;;;;;;5055489;28;20111;-89
2022/07/16 02:35:38;;;;;;;2.97;1.85;;;15.90;74.90;;;;;;5056253;28;20020;-89
2022/07/16 02:38:06;;;;;;;5.05;2.05;;;15.90;75.00;;;;;;5056234;28;20082;-89
2022/07/16 02:40:35;;;;;;;4.40;2.30;;;15.80;75.20;;;;;;5056487;28;20024;-89
2022/07/16 02:43:02;;;;;;;4.82;2.40;;;15.90;75.30;;;;;;5059277;28;20458;-88
2022/07/16 02:45:27;;;;;;;3.72;1.92;;;16.00;75.30;;;;;;5059913;28;20074;-88
2022/07/16 02:47:53;;;;;;;6.93;2.10;;;16.00;75.20;;;;;;5059664;28;20028;-92
2022/07/16 02:50:19;;;;;;;2.83;1.83;;;16.10;75.10;;;;;;5056565;28;20147;-89
2022/07/16 02:52:45;;;;;;;5.40;2.30;;;16.10;75.00;;;;;;5056771;28;20025;-89
2022/07/16 02:55:11;;;;;;;4.47;2.38;;;16.10;75.40;;;;;;5056755;28;20091;-89
2022/07/16 02:57:37;;;;;;;7.63;2.50;;;16.00;75.30;;;;;;5056389;28;20039;-89
2022/07/16 03:00:05;;;;;;;4.40;2.00;;;16.10;75.60;;;;;;5056943;28;20079;-89
2022/07/16 03:02:31;;;;;;;2.97;2.05;;;16.00;75.80;;;;;;5056464;28;20025;-88
2022/07/16 03:04:57;;;;;;;5.18;1.90;;;16.00;76.00;;;;;;5055979;28;20032;-89
2022/07/16 03:07:22;;;;;;;4.32;2.55;;;16.00;76.00;;;;;;5057196;28;20071;-88
2022/07/16 03:09:48;;;;;;;4.50;2.30;;;16.00;76.00;;;;;;5056285;28;20039;-89
2022/07/16 03:12:13;;;;;;;4.30;2.58;;;16.10;76.00;;;;;;5055777;28;20028;-89
2022/07/16 03:14:39;;;;;;;4.53;2.28;;;16.10;76.20;;;;;;5059474;28;20025;-88
2022/07/16 03:17:04;;;;;;;4.05;2.40;;;16.10;76.30;;;;;;5076681;28;20052;-89
2022/07/16 03:19:30;;;;;;;5.85;2.53;;;16.10;76.50;;;;;;5059354;28;20024;-88
2022/07/16 03:21:56;;;;;;;4.22;2.25;;;16.00;76.60;;;;;;5058807;28;20056;-88
2022/07/16 03:24:21;;;;;;;6.35;2.60;;;16.00;77.00;;;;;;5059078;28;20369;-89
2022/07/16 03:26:47;;;;;;;4.13;2.30;;;15.90;77.40;;;;;;5073555;28;20099;-88
2022/07/16 03:29:12;;;;;;;4.70;2.42;;;15.90;77.60;;;;;;5053967;28;20036;-89
2022/07/16 03:31:38;;;;;;;5.53;2.63;;;15.80;77.40;;;;;;5058887;28;20504;-89
2022/07/16 03:34:04;;;;;;;5.20;2.20;;;15.90;77.40;;;;;;5058589;28;20033;-88
2022/07/16 03:36:29;;;;;;;2.75;2.22;;;16.00;77.10;;;;;;5058883;28;20082;-89
2022/07/16 03:41:27;;;;;;;4.05;2.40;;;16.00;77.00;;;;;;5073871;28;20024;-89
2022/07/16 03:43:52;;;;;;;4.68;2.40;;;16.10;77.00;;;;;;5058608;28;20119;-91
2022/07/16 03:46:18;;;;;;;5.03;2.42;;;16.10;76.90;;;;;;5058658;28;20060;-88
2022/07/16 03:48:44;;;;;;;4.15;2.40;;;16.10;76.90;;;;;;5058360;28;20127;-88
2022/07/16 03:51:10;;;;;;;4.60;2.35;;;16.10;76.80;;;;;;5058386;28;20044;-89
2022/07/16 03:53:37;;;;;;;5.07;2.63;;;16.10;77.00;;;;;;5074819;28;20032;-89
2022/07/16 03:56:03;;;;;;;3.40;2.17;;;16.00;77.20;;;;;;5075460;28;20083;-89
2022/07/16 03:58:29;;;;;;;5.20;2.53;;;16.10;77.20;;;;;;5058457;28;20032;-87
2022/07/16 04:00:55;;;;;;;5.22;2.47;;;16.00;77.20;;;;;;5075495;28;20021;-87
2022/07/16 04:03:22;;;;;;;4.63;2.30;;;16.00;77.60;;;;;;5058643;28;20025;-87
2022/07/16 04:05:48;;;;;;;4.32;2.00;;;15.90;77.90;;;;;;5058754;28;20029;-89
2022/07/16 04:08:13;;;;;;;4.03;2.60;;;15.70;78.40;;;;;;5057621;28;20033;-89
2022/07/16 04:10:39;;;;;;;7.45;2.40;;;15.60;78.90;;;;;;5058346;28;20528;-89
2022/07/16 04:13:04;;;;;;;4.88;2.58;;;15.60;79.10;;;;;;5057789;28;20067;-89
2022/07/16 04:15:30;;;;;;;3.65;2.53;;;15.60;79.30;;;;;;5075895;28;20137;-89
2022/07/16 04:17:56;;;;;;;4.45;2.40;;;15.60;79.60;;;;;;5074729;28;20060;-89
2022/07/16 04:20:22;;;;;;;6.40;2.60;;;15.70;79.50;;;;;;5058434;28;20492;-88
2022/07/16 04:22:47;;;;;;;4.18;2.25;;;15.70;79.50;;;;;;5075481;28;20017;-89
2022/07/16 04:25:13;;;;;;;5.25;2.65;;;15.80;79.40;;;;;;5057779;28;20404;-89
2022/07/16 04:27:42;;;;;;;7.47;2.35;;;15.80;79.30;;;;;;5057452;28;20043;-89
2022/07/16 04:30:09;;;;;;;5.22;2.65;;;15.70;79.50;;;;;;5057704;28;20462;-89
2022/07/16 04:32:36;;;;;;;4.03;2.40;;;15.70;79.80;;;;;;5058059;28;20032;-90
2022/07/16 04:35:03;;;;;;;4.93;2.40;;;15.60;80.20;;;;;;5057534;28;20031;-89
2022/07/16 04:37:29;;;;;;;6.32;2.28;;;15.60;80.40;;;;;;5057573;28;20116;-89
2022/07/16 04:39:54;;;;;;;5.25;2.45;;;15.70;80.40;;;;;;5056871;28;20059;-89
2022/07/16 04:42:20;;;;;;;3.60;2.42;;;15.70;80.20;;;;;;5074963;28;20363;-89
2022/07/16 04:44:46;;;;;;;5.05;2.30;;;15.80;80.00;;;;;;5057616;28;20047;-89
2022/07/16 04:47:11;;;;;;;6.07;2.95;;;15.90;80.00;;;;;;5057667;28;20032;-89
2022/07/16 04:49:37;;;;;;;4.57;2.83;;;15.90;79.70;;;;;;5057673;28;20024;-89
2022/07/16 04:52:04;;;;;;;5.55;2.63;;;15.90;79.70;;;;;;5057090;28;20020;-89
2022/07/16 04:54:30;;;;;;;4.28;2.15;;;16.00;80.00;;;;;;5075095;28;20024;-89
2022/07/16 04:56:55;;;;;;;7.80;2.58;;;16.00;80.00;;;;;;5057066;28;20039;-89
2022/07/16 04:59:21;;;;;;;3.60;2.60;;;16.00;80.30;;;;;;5074908;28;20389;-89
2022/07/16 05:01:47;;;;;;;4.15;2.55;;;16.00;80.10;;;;;;5057139;28;20453;-89
2022/07/16 05:04:12;;;;;;;3.70;2.28;;;16.00;80.10;;;;;;5056421;28;20833;-89
2022/07/16 05:06:38;;;;;;;4.20;2.50;;;16.10;80.00;;;;;;5057399;28;20119;-88
2022/07/16 05:09:04;;;;;;;4.18;2.20;;;16.10;80.00;;;;;;5056673;28;20409;-89
2022/07/16 05:11:30;;;;;;;5.72;2.70;;;16.10;80.10;;;;;;5057142;28;20063;-89
2022/07/16 05:13:56;;;;;;;4.10;2.30;;;16.20;80.30;;;;;;5073920;28;20024;-89
2022/07/16 05:16:24;;;;;;;5.32;2.42;;;16.20;80.20;;;;;;5056682;28;20052;-89
2022/07/16 05:18:50;;;;;;;5.45;2.30;;;16.20;80.20;;;;;;5036555;28;20025;-91
2022/07/16 05:21:17;;;;;;;4.00;2.67;;;16.30;80.40;;;;;;5046072;28;20033;-88
2022/07/16 05:23:43;;;;;;;5.25;2.88;;;16.30;80.40;;;;;;5064292;28;20028;-88
2022/07/16 05:26:09;;;;;;;4.63;2.25;;;16.30;80.10;;;;;;5052370;28;20171;-88
2022/07/16 05:28:35;;;;;;;4.75;2.40;;;16.30;80.20;;;;;;5038597;28;20037;-88
2022/07/16 05:31:01;;;;;;;6.68;2.42;;;16.40;80.10;;;;;;5049710;28;20111;-88
2022/07/16 05:33:26;;;;;;;3.45;2.10;;;16.40;80.20;;;;;;5073958;28;20155;-88
2022/07/16 05:35:52;;;;;;;4.72;2.05;;;16.50;80.00;;;;;;5073482;28;20021;-89
2022/07/16 05:38:18;;;;;;;5.13;1.98;;;16.60;79.50;;;;;;5055828;28;20024;-88
2022/07/16 05:40:44;;;;;;;2.78;1.60;;;16.70;79.20;;;;;;5055934;28;20397;-88
2022/07/16 05:43:10;;;;;;;4.05;2.03;;;16.70;78.80;;;;;;5055556;28;20031;-88
2022/07/16 05:45:37;;;;;;;3.83;2.20;;;16.80;78.20;;;;;;5074024;28;20063;-88
2022/07/16 05:48:03;;;;;;;4.97;2.03;;;16.80;78.00;;;;;;5072814;28;20123;-89
2022/07/16 05:50:28;;;;;;;4.78;2.10;;;16.80;77.60;;;;;;5056555;28;20075;-89
2022/07/16 05:52:54;;;;;;;3.70;1.95;;;16.90;76.70;;;;;;5055479;28;20032;-90
2022/07/16 05:55:19;;;;;;;4.90;2.05;;;17.00;76.80;;;;;;5055990;28;20451;-88
2022/07/16 05:57:45;;;;;;;4.20;2.08;;;17.10;76.80;;;;;;5056086;28;20103;-88
2022/07/16 06:00:12;;;;;;;4.40;2.15;;;17.20;76.30;;;;;;5073233;28;20048;-88
2022/07/16 06:02:38;;;;;;;5.55;2.00;;;17.30;75.50;;;;;;5056686;28;20024;-89
2022/07/16 06:05:04;;;;;;;5.50;2.47;;;17.30;74.30;;;;;;5056419;28;20025;-89
2022/07/16 06:07:30;;;;;;;3.38;2.20;;;17.40;74.20;;;;;;5076143;28;20074;-88
2022/07/16 06:09:55;;;;;;;6.05;1.85;;;17.50;73.90;;;;;;5056716;28;20028;-89
2022/07/16 06:12:21;;;;;;;3.45;1.77;;;17.50;73.10;;;;;;5074021;28;20423;-89
2022/07/16 06:14:47;;;;;;;4.28;1.65;;;17.60;73.80;;;;;;5056422;28;20419;-88
2022/07/16 06:17:13;;;;;;;3.08;2.08;;;17.60;73.10;;;;;;5054870;28;20599;-89
2022/07/16 06:19:43;;;;;;;5.88;2.10;;;17.60;72.50;;;;;;5056831;28;20028;-89
2022/07/16 06:22:09;;;;;;;6.53;2.10;;;17.70;72.50;;;;;;5057546;28;20108;-90
2022/07/16 06:24:35;;;;;;;4.05;2.08;;;17.70;72.00;;;;;;5038967;28;20497;-89
2022/07/16 06:27:00;;;;;;;7.50;2.17;;;17.80;72.30;;;;;;5051901;28;20026;-89
2022/07/16 06:29:26;;;;;;;6.45;2.17;;;17.90;72.50;;;;;;5045972;28;20040;-89
2022/07/16 06:31:52;;;;;;;5.57;1.80;;;17.90;72.80;;;;;;5027420;28;20093;-91
2022/07/16 06:34:18;;;;;;;3.20;1.80;;;17.90;72.40;;;;;;5035465;28;20451;-89
2022/07/16 06:36:43;;;;;;;5.25;2.10;;;18.10;71.80;;;;;;5039793;28;20462;-89
2022/07/16 06:39:09;;;;;;;4.70;2.50;;;18.10;70.60;;;;;;5056813;28;20083;-88
2022/07/16 06:41:39;;;;;;;3.28;2.30;;;18.20;70.10;;;;;;5039503;28;20028;-88
2022/07/16 06:44:07;;;;;;;4.65;1.70;;;18.20;70.20;;;;;;5032958;28;20025;-88
2022/07/16 06:46:33;;;;;;;6.55;2.10;;;18.20;70.20;;;;;;5037155;28;20120;-88
2022/07/16 06:48:59;;;;;;;3.28;1.70;;;18.30;69.60;;;;;;5056420;28;20100;-89
2022/07/16 06:51:25;;;;;;;3.42;1.67;;;18.30;69.00;;;;;;5038963;28;20025;-89
2022/07/16 06:53:50;;;;;;;5.25;1.90;;;18.30;68.80;;;;;;5039010;28;20025;-90
2022/07/16 06:56:16;;;;;;;5.43;1.88;;;18.40;69.00;;;;;;5056418;28;20359;-88
2022/07/16 06:58:42;;;;;;;5.15;1.83;;;18.50;68.40;;;;;;5022531;28;20041;-88
2022/07/16 07:01:08;;;;;;;5.55;1.80;;;18.50;69.00;;;;;;5035236;28;20107;-89
2022/07/16 07:03:34;;;;;;;6.40;2.08;;;18.60;68.90;;;;;;5041908;28;20071;-90
2022/07/16 07:06:00;;;;;;;6.72;2.20;;;18.60;70.00;;;;;;5062799;28;20021;-89
2022/07/16 07:08:25;;;;;;;4.60;2.30;;;18.70;71.40;;;;;;5055204;28;20033;-89
2022/07/16 07:10:51;;;;;;;11.25;2.88;;;18.80;70.70;;;;;;5042152;28;20474;-89
2022/07/16 07:13:17;;;;;;;3.83;2.13;;;18.80;70.50;;;;;;5044623;28;20469;-88
2022/07/16 07:15:42;;;;;;;4.53;2.20;;;18.90;70.30;;;;;;5045617;28;20033;-89
2022/07/16 07:18:08;;;;;;;6.13;2.08;;;18.90;70.10;;;;;;5048253;28;20033;-88
2022/07/16 07:20:34;;;;;;;8.45;2.25;;;19.00;69.80;;;;;;5056615;28;20029;-89
2022/07/16 07:22:59;;;;;;;4.75;1.92;;;19.00;69.30;;;;;;5041755;28;20425;-89
2022/07/16 07:25:26;;;;;;;3.95;1.77;;;19.10;69.00;;;;;;5042342;28;20021;-88
2022/07/16 07:27:52;;;;;;;4.30;1.80;;;19.10;68.60;;;;;;5045327;28;20501;-88
2022/07/16 07:30:17;;;;;;;3.55;1.60;;;19.10;68.60;;;;;;5053108;28;20422;-88
2022/07/16 07:32:43;;;;;;;4.28;1.50;;;19.20;68.30;;;;;;5048494;28;20036;-88
2022/07/16 07:35:09;;;;;;;4.07;1.63;;;19.20;68.30;;;;;;5055574;28;20080;-89
2022/07/16 07:37:35;;;;;;;3.28;1.50;;;19.30;67.20;;;;;;5045010;28;20032;-88
2022/07/16 07:40:03;;;;;;;5.22;1.58;;;19.30;67.60;;;;;;5043558;28;20017;-89
2022/07/16 07:42:29;;;;;;;3.17;1.42;;;19.40;68.10;;;;;;5045500;28;20479;-89
2022/07/16 07:44:54;;;;;;;5.47;1.80;;;19.40;67.70;;;;;;5055133;28;20076;-88
2022/07/16 07:47:20;;;;;;;2.65;1.50;;;19.40;67.30;;;;;;5046085;28;20031;-88
2022/07/16 07:49:46;;;;;;;2.08;1.08;;;19.40;67.20;;;;;;5046754;28;20420;-88
2022/07/16 07:52:12;;;;;;;9.20;1.58;;;19.50;66.90;;;;;;5047825;28;20532;-88
2022/07/16 07:54:38;;;;;;;5.10;1.40;;;19.60;66.50;;;;;;5046654;28;20055;-90
2022/07/16 07:57:03;;;;;;;3.78;1.90;;;19.60;66.40;;;;;;5046520;28;20032;-89
2022/07/16 07:59:29;;;;;;;4.45;1.75;;;19.70;66.70;;;;;;5047975;28;20180;-89
2022/07/16 08:01:54;;;;;;;3.72;1.27;;;19.70;66.00;;;;;;5046332;28;20021;-89
2022/07/16 08:04:20;;;;;;;2.75;1.10;;;19.70;65.40;;;;;;5044378;28;20025;-88
2022/07/16 08:06:46;;;;;;;5.32;0.77;;;19.80;64.40;;;;;;5043175;28;20497;-89
2022/07/16 08:09:11;;;;;;;3.40;1.23;;;19.90;63.20;;;;;;5042385;28;20025;-89
2022/07/16 08:11:37;;;;;;;3.38;1.30;;;19.80;64.30;;;;;;5047449;28;20216;-89
2022/07/16 08:14:03;;;;;;;3.03;1.30;;;19.90;64.40;;;;;;5052748;28;20024;-89
2022/07/16 08:16:29;;;;;;;3.53;1.17;;;19.90;64.70;;;;;;5048813;28;20068;-90
2022/07/16 08:18:54;;;;;;;3.13;0.95;;;19.90;64.40;;;;;;5053826;28;20025;-88
2022/07/16 08:21:20;;;;;;;2.67;0.75;;;20.00;63.20;;;;;;5057282;28;20035;-88
2022/07/16 08:26:30;;;;;;;3.45;1.17;;;20.10;62.60;;;;;;5070560;28;20039;-89
2022/07/16 08:28:55;;;;;;;3.85;0.90;;;20.10;62.90;;;;;;5056369;28;20032;-89
2022/07/16 08:31:21;;;;;;;3.25;1.08;;;20.20;62.60;;;;;;5074885;28;20025;-90
2022/07/16 08:33:47;;;;;;;2.95;1.10;;;20.30;62.20;;;;;;5074939;28;20028;-89
2022/07/16 08:36:12;;;;;;;3.75;1.13;;;20.30;61.80;;;;;;5054120;28;20024;-88
2022/07/16 08:38:38;;;;;;;1.92;0.90;;;20.40;62.40;;;;;;5056333;28;20576;-88
2022/07/16 08:41:05;;;;;;;6.13;1.30;;;20.50;61.80;;;;;;5056056;28;20032;-87
2022/07/16 08:43:32;;;;;;;2.78;1.00;;;20.40;61.40;;;;;;5073557;28;20048;-88
2022/07/16 08:45:57;;;;;;;2.70;0.63;;;20.60;62.50;;;;;;5077720;28;20024;-89
2022/07/16 08:48:24;;;;;;;4.78;0.90;;;20.60;61.80;;;;;;5083942;28;20031;-89
2022/07/16 08:50:52;;;;;;;1.67;0.82;;;20.60;62.10;;;;;;5087459;28;20111;-89
2022/07/16 08:53:22;;;;;;;4.10;0.95;;;20.70;62.30;;;;;;5077191;28;20063;-89
2022/07/16 08:55:52;;;;;;;4.63;1.05;;;20.70;62.80;;;;;;5062116;28;20028;-88
2022/07/16 08:58:17;;;;;;;5.05;0.80;;;20.80;62.00;;;;;;5073900;28;20024;-88
2022/07/16 09:00:43;;;;;;;2.55;0.80;;;20.80;61.50;;;;;;5061697;28;20083;-88
2022/07/16 09:03:13;;;;;;;3.47;1.00;;;20.80;61.20;;;;;;5056745;28;20021;-89
2022/07/16 09:05:39;;;;;;;4.63;0.90;;;20.80;60.90;;;;;;5056679;28;20020;-88
2022/07/16 09:08:05;;;;;;;1.65;0.70;;;20.90;60.20;;;;;;5057064;28;20051;-89
2022/07/16 09:10:35;;;;;;;3.88;0.95;;;20.90;60.40;;;;;;5050785;28;20029;-90
2022/07/16 09:13:01;;;;;;;2.47;0.63;;;20.90;61.60;;;;;;5060207;28;20024;-89
2022/07/16 09:15:32;;;;;;;3.60;0.90;;;21.00;61.90;;;;;;5064989;28;20023;-88
2022/07/16 09:18:09;;;;;;;1.15;0.80;;;21.10;61.60;;;;;;5064858;28;20494;-88
2022/07/16 09:20:36;;;;;;;1.67;0.82;;;21.20;61.30;;;;;;5058916;28;20474;-88
2022/07/16 09:23:02;;;;;;;4.53;0.98;;;21.10;61.00;;;;;;5056739;28;20461;-88
2022/07/16 09:25:28;;;;;;;2.78;0.90;;;21.20;60.20;;;;;;5058393;28;20381;-88
2022/07/16 09:27:58;;;;;;;1.90;0.90;;;21.10;59.70;;;;;;5055915;28;20037;-91
2022/07/16 09:30:25;;;;;;;3.88;0.80;;;21.10;60.30;;;;;;5076593;28;20156;-88
2022/07/16 09:32:50;;;;;;;2.33;0.80;;;21.10;61.20;;;;;;5064357;28;20081;-91
2022/07/16 09:35:18;;;;;;;3.42;0.88;;;21.20;61.40;;;;;;5086097;28;20051;-88
2022/07/16 09:37:57;;;;;;;2.42;1.00;;;21.20;60.90;;;;;;5090431;28;20481;-89
2022/07/16 09:40:35;;;;;;;1.23;0.70;;;21.30;61.10;;;;;;5072565;28;20071;-90
2022/07/16 09:43:04;;;;;;;2.03;0.70;;;21.30;60.80;;;;;;5065163;28;20034;-89
2022/07/16 09:45:29;;;;;;;1.23;0.65;;;21.30;60.80;;;;;;5074247;28;20469;-89
2022/07/16 09:47:55;;;;;;;1.67;0.82;;;21.40;60.30;;;;;;5070842;28;20145;-89
2022/07/16 09:50:21;;;;;;;2.63;0.90;;;21.40;60.40;;;;;;5067881;28;20028;-88
2022/07/16 09:52:47;;;;;;;1.95;0.98;;;21.50;59.70;;;;;;5061714;28;20465;-89
2022/07/16 09:55:13;;;;;;;2.80;0.70;;;21.60;59.60;;;;;;5058918;28;20059;-89
2022/07/16 09:57:42;;;;;;;3.20;0.80;;;21.60;59.10;;;;;;5050663;28;20409;-88
2022/07/16 10:00:11;;;;;;;1.48;0.88;;;21.60;57.20;;;;;;5059655;28;20024;-89
2022/07/16 10:02:38;;;;;;;5.95;0.80;;;21.70;57.90;;;;;;5051170;28;20030;-90
2022/07/16 10:05:05;;;;;;;1.63;0.70;;;21.70;57.40;;;;;;5069108;28;20065;-89
2022/07/16 10:07:32;;;;;;;2.60;0.70;;;21.70;55.60;;;;;;5089584;28;20107;-89
2022/07/16 10:09:58;;;;;;;2.25;0.50;;;21.70;53.90;;;;;;5073837;28;20040;-89
2022/07/16 10:12:26;;;;;;;1.50;0.60;;;21.60;54.40;;;;;;5072531;28;20461;-88
2022/07/16 10:14:54;;;;;;;3.85;0.70;;;21.70;52.70;;;;;;5055136;28;20021;-90
2022/07/16 10:17:34;;;;;;;2.67;0.52;;;21.60;52.70;;;;;;5073241;28;20048;-88
2022/07/16 10:20:08;;;;;;;1.25;0.60;;;21.60;53.20;;;;;;5056010;28;20029;-89
2022/07/16 10:22:42;;;;;;;1.45;0.70;;;21.60;53.20;;;;;;5056142;28;20031;-88
2022/07/16 10:25:33;;;;;;;0.60;0.40;;;21.70;53.00;;;;;;5055826;28;20083;-88
2022/07/16 10:27:58;;;;;;;3.70;0.60;;;21.80;54.10;;;;;;5055741;28;20036;-89
2022/07/16 10:30:27;;;;;;;1.58;0.63;;;21.80;53.90;;;;;;5056820;28;20056;-90
2022/07/16 10:33:02;;;;;;;2.35;0.70;;;21.90;54.20;;;;;;5056413;28;20025;-90
2022/07/16 10:35:29;;;;;;;2.67;0.73;;;21.90;54.70;;;;;;5073821;28;20483;-89
2022/07/16 10:38:20;;;;;;;1.45;0.70;;;22.10;54.60;;;;;;5055467;28;20029;-89
2022/07/16 10:41:03;;;;;;;1.37;0.60;;;22.20;54.30;;;;;;5055932;28;20043;-89
2022/07/16 10:43:29;;;;;;;2.70;0.70;;;22.20;55.30;;;;;;5055528;28;20025;-88
2022/07/16 10:45:56;;;;;;;1.25;0.65;;;22.20;55.30;;;;;;5054938;28;20355;-89
2022/07/16 10:48:23;;;;;;;2.15;0.50;;;22.20;55.20;;;;;;5055221;28;20079;-89
2022/07/16 10:51:14;;;;;;;2.05;0.52;;;22.30;55.10;;;;;;5055490;28;20025;-90
2022/07/16 10:53:58;;;;;;;0.95;0.50;;;22.30;54.60;;;;;;5056117;28;20052;-90
2022/07/16 10:56:44;;;;;;;2.30;0.65;;;22.30;54.70;;;;;;5038732;28;20425;-91
2022/07/16 10:59:32;;;;;;;2.47;0.70;;;22.40;55.60;;;;;;5073150;28;20052;-89
2022/07/16 11:02:00;;;;;;;2.05;0.85;;;22.40;55.90;;;;;;5073084;28;20047;-90
2022/07/16 11:04:37;;;;;;;2.42;0.60;;;22.40;55.20;;;;;;5058966;28;20052;-89
2022/07/16 11:07:07;;;;;;;1.55;0.50;;;22.40;54.80;;;;;;5076297;28;20083;-88
2022/07/16 11:09:35;;;;;;;3.05;0.77;;;22.40;55.10;;;;;;5076623;28;20020;-89
2022/07/16 11:12:11;;;;;;;1.80;0.80;;;22.40;55.00;;;;;;5062996;28;20027;-89
2022/07/16 11:14:38;;;;;;;2.15;0.88;;;22.50;55.30;;;;;;5079804;28;20028;-90
2022/07/16 11:17:03;;;;;;;2.38;0.90;;;22.60;55.20;;;;;;5050877;28;20080;-89
2022/07/16 11:19:29;;;;;;;1.77;0.55;;;22.70;54.60;;;;;;5048445;28;20020;-88
2022/07/16 11:22:00;;;;;;;2.60;0.80;;;22.80;54.70;;;;;;5063587;28;20462;-89
2022/07/16 11:24:27;;;;;;;2.38;0.75;;;22.80;55.10;;;;;;5055505;28;20074;-89
2022/07/16 11:26:56;;;;;;;3.40;1.20;;;22.80;55.00;;;;;;5038312;28;20083;-89
2022/07/16 11:29:24;;;;;;;1.75;0.95;;;22.90;54.10;;;;;;5056431;28;20040;-87
2022/07/16 11:31:50;;;;;;;1.65;0.60;;;23.00;53.10;;;;;;5067999;28;20016;-88
2022/07/16 11:34:22;;;;;;;2.63;1.08;;;23.00;53.30;;;;;;5061667;28;20025;-88
2022/07/16 11:36:52;;;;;;;1.70;0.90;;;23.10;54.60;;;;;;5058304;28;20488;-89
2022/07/16 11:39:21;;;;;;;2.60;0.77;;;23.20;54.20;;;;;;5048251;28;20116;-89
2022/07/16 11:41:49;;;;;;;1.00;0.80;;;23.20;54.40;;;;;;5053035;28;20035;-88
2022/07/16 11:44:17;;;;;;;2.50;0.85;;;23.30;54.30;;;;;;5064940;28;20044;-87
2022/07/16 11:46:51;;;;;;;1.83;0.70;;;23.40;54.60;;;;;;5044346;28;20116;-88
2022/07/16 11:49:41;;;;;;;2.45;0.60;;;23.40;54.40;;;;;;5051851;28;20041;-89
2022/07/16 11:52:09;;;;;;;1.85;0.75;;;23.50;53.80;;;;;;5055333;28;20035;-89
2022/07/16 11:54:37;;;;;;;1.60;0.90;;;23.60;53.00;;;;;;5041415;28;20083;-88
2022/07/16 11:57:03;;;;;;;1.52;0.70;;;23.60;52.50;;;;;;5033842;28;20034;-87
2022/07/16 11:59:32;;;;;;;1.45;0.70;;;23.80;52.70;;;;;;5029006;28;20021;-88
2022/07/16 12:02:13;;;;;;;2.13;0.60;;;23.80;52.70;;;;;;5047253;28;20517;-90
2022/07/16 12:04:40;;;;;;;1.05;0.70;;;23.70;52.00;;;;;;5040793;28;20025;-89
2022/07/16 12:07:09;;;;;;;2.42;0.90;;;23.70;52.60;;;;;;5034262;28;20029;-88
2022/07/16 12:09:46;;;;;;;2.55;0.70;;;23.80;52.40;;;;;;5021446;28;20048;-88
2022/07/16 12:12:15;;;;;;;1.02;0.80;;;23.90;52.30;;;;;;5053802;28;20502;-89
2022/07/16 12:14:53;;;;;;;1.88;0.90;;;24.00;52.30;;;;;;5042304;28;20053;-89
2022/07/16 12:17:19;;;;;;;1.27;0.77;;;24.10;52.10;;;;;;5056081;28;20044;-89
2022/07/16 12:20:02;;;;;;;2.35;0.63;;;24.10;52.80;;;;;;5080029;28;20025;-89
2022/07/16 12:23:06;;;;;;;2.20;0.70;;;24.10;52.30;;;;;;5045258;28;20477;-88
2022/07/16 12:25:34;;;;;;;0.93;0.70;;;24.20;52.10;;;;;;5038341;28;20377;-89
2022/07/16 12:28:19;;;;;;;2.88;0.80;;;24.30;52.10;;;;;;5056093;28;20036;-87
2022/07/16 12:30:57;;;;;;;3.33;0.90;;;24.40;51.80;;;;;;5037074;28;20022;-88
2022/07/16 12:33:29;;;;;;;1.33;0.85;;;24.40;51.70;;;;;;5034694;28;20032;-88
2022/07/16 12:36:05;;;;;;;1.88;0.75;;;24.60;51.70;;;;;;5040621;28;20038;-87
2022/07/16 12:38:45;;;;;;;2.00;0.75;;;24.70;51.10;;;;;;5040562;28;20095;-87
2022/07/16 12:41:21;;;;;;;1.48;1.02;;;24.70;51.20;;;;;;5035817;28;20255;-86
2022/07/16 12:43:53;;;;;;;2.63;0.95;;;24.90;52.50;;;;;;5058631;28;20409;-86
2022/07/16 12:46:19;;;;;;;;;;;25.00;51.50;;;;;;5059010;28;20021;-88
2022/07/16 12:49:09;;;;;;;6.30;0.77;;;25.10;51.60;;;;;;5040084;28;19925;-89
2022/07/16 12:51:39;;;;;;;2.13;0.63;;;25.20;52.10;;;;;;5050566;28;20056;-89
2022/07/16 12:54:06;;;;;;;3.53;0.95;;;25.20;50.80;;;;;;5041028;28;20020;-87
2022/07/16 12:59:18;;;;;;;2.13;0.73;;;25.20;51.30;;;;;;5059026;28;20447;-87